Air Navigation Services of Czech Republic
Airport: LKMT Updated:  19.01.2018 14:51:05  UTC
 METAR LKMT 19.01. 14:30 ...
METAR LKMT 191430Z 23012KT CAVOK 02/M01 Q1007 NOSIG RMK REG QNH 1003=
 TAF LKMT 19.01. 11:00 ...
TAF LKMT 191100Z 1912/2018 22012KT 9999 SCT035      TEMPO 1912/2012 8000 -SHRASN BKN015      PROB30 TEMPO 1912/1919 3000 SHSNRA SCT013TCU=